KSJC

Norman Y Mineta San Jose International Airport

San Jose, California, USA
METAR KSJC 231053Z AUTO 00000KT 10SM OVC017 09/07 A3030 RMK AO2 SLP260 T00890072 $
Observed Flight Rules
Jan-23 @ 10:53 UTC (54 minutes ago) Marginal Visual Flight Rules
Wind Visibility Clouds
Calm 10 miles
  • Overcast at 1,700' AGL
Temperatures Readings
Current 9°C / 48°F
Dewpoint 7°C / 45°F
Humidity 87%
Altimeter 30.3" Hg
Pressure 1026 hPa
Elevation 24
METAR KSJC 231053Z AUTO 00000KT 10SM OVC017 09/07 A3030 RMK AO2 SLP260 T00890072 $
Observed Flight Rules
Jan-23 @ 10:53 UTC
(54 minutes ago)
MVFR
Wind Visibility
Calm 10 miles
Clouds
  • Overcast at 1,700' AGL
Temperature Dewpoint
9°C / 48°F 7°C / 45°F
Humidity Altimeter Pressure
87% 30.3" Hg 1026 hPa